To NAV CANADA Home Page Login to a new session Search on AWWS site Feedback and Comments Disclaimer Vers la page française équivalente Tips FAQ What's new on the site To the Forecasts and Observations / NOTAM section To "File a Flight Plan" website Publications and other links Update of the User's profile FIC Telephone Numbers My Weather Data Folder Route Weather Data Regional Weather Data Local Weather Data To the Forecasts and Observations / NOTAM section
Request Generated 04/30/2017 at 20:31:56 UTC . Weather information available at that time is displayed.

METAR/TAF

WHITEHORSE/ERIK NIELSEN INTL/YT    

METAR CYXY 302000Z 15011KT 40SM FEW050 SCT110 OVC220 11/M08 A2981 RMK
CU1AC2CI5 SLP124 DENSITY ALT 2500FT=
METAR CYXY 301900Z 14009G17KT 40SM FEW050 SCT080 OVC220 09/M07 A2982
RMK CU1AC3CI4 SLP128=
METAR CYXY 301800Z 15007KT 40SM FEW070 OVC220 07/M08 A2983 RMK AC1CI7
SLP130=

TAF CYXY 301738Z 3018/0106 14006KT P6SM FEW080 SCT220
FM302000 16012G22KT P6SM SCT060 TEMPO 3020/0104 P6SM -SHRA BKN060
FM010400 17010KT P6SM BKN070
RMK NXT FCST BY 010000Z=
Your time UTC time
Weather data provided by Environment Canada and NAV CANADA